Weather at Waine Heliport

Public forecast

Using degrees Fahrenheit for public forecast. Weather courtesy of forecast.io.

Closest aviation weather report (METAR) to Waine Heliport

Closest report is Nantucket Memorial Airport, 4.5 nm (8.3 km) ESE. Retrieved 2020/12/01 18:53 UTC (44 minutes ago):

KACK 011853Z 21010KT 6SM HZ OVC055 14/11 A2960 RMK AO2 SLP024 T01390111

Closest aviation forecast (TAF) to Waine Heliport

Closest forecast is Nantucket Memorial Airport, 4.5 nm (8.3 km) ESE. Retrieved 2020/12/01 18:57 UTC (40 minutes ago):

TAF KACK 011741Z 0118/0218 21014G25KT 5SM -SHRA BR OVC050 FM012000 22016G26KT P6SM BKN045 FM020000 22020G32KT P6SM BKN060 FM020600 23018G28KT P6SM BKN035 FM021500 23019G28KT P6SM VCSH BKN030